sensor_id;sensor_type;location;lat;lon;timestamp;pressure;altitude;pressure_sealevel;temperature;humidity
47220;BME280;32961;51.936;4.788;2023-05-25T00:02:27;102620.41;;;11.73;77.10
47220;BME280;32961;51.936;4.788;2023-05-25T00:04:55;102626.81;;;11.72;76.82
47220;BME280;32961;51.936;4.788;2023-05-25T00:07:23;102616.81;;;11.72;76.96
47220;BME280;32961;51.936;4.788;2023-05-25T00:09:51;102615.38;;;11.67;77.23
47220;BME280;32961;51.936;4.788;2023-05-25T00:12:19;102616.34;;;11.66;77.14
47220;BME280;32961;51.936;4.788;2023-05-25T00:14:47;102618.53;;;11.61;77.49
47220;BME280;32961;51.936;4.788;2023-05-25T00:17:15;102617.09;;;11.55;77.98
47220;BME280;32961;51.936;4.788;2023-05-25T00:19:45;102621.28;;;11.48;78.34
47220;BME280;32961;51.936;4.788;2023-05-25T00:22:13;102623.53;;;11.41;79.49
47220;BME280;32961;51.936;4.788;2023-05-25T00:24:41;102626.38;;;11.39;79.54
47220;BME280;32961;51.936;4.788;2023-05-25T00:27:09;102627.34;;;11.38;79.55
47220;BME280;32961;51.936;4.788;2023-05-25T00:29:37;102625.47;;;11.39;79.19
47220;BME280;32961;51.936;4.788;2023-05-25T00:32:05;102624.50;;;11.40;78.64
47220;BME280;32961;51.936;4.788;2023-05-25T00:34:33;102628.84;;;11.43;78.45
47220;BME280;32961;51.936;4.788;2023-05-25T00:37:03;102629.63;;;11.45;78.16
47220;BME280;32961;51.936;4.788;2023-05-25T00:39:31;102634.09;;;11.46;78.27
47220;BME280;32961;51.936;4.788;2023-05-25T00:42:01;102615.38;;;11.41;77.72
47220;BME280;32961;51.936;4.788;2023-05-25T00:44:29;102624.84;;;11.48;77.44
47220;BME280;32961;51.936;4.788;2023-05-25T00:46:58;102624.00;;;11.48;77.13
47220;BME280;32961;51.936;4.788;2023-05-25T00:49:27;102625.94;;;11.46;78.00
47220;BME280;32961;51.936;4.788;2023-05-25T00:51:56;102612.28;;;11.33;78.26
47220;BME280;32961;51.936;4.788;2023-05-25T00:57:50;102634.94;;;11.33;79.10
47220;BME280;32961;51.936;4.788;2023-05-25T01:00:18;102629.72;;;11.30;78.91
47220;BME280;32961;51.936;4.788;2023-05-25T01:02:47;102636.13;;;11.29;78.87
47220;BME280;32961;51.936;4.788;2023-05-25T01:05:18;102637.88;;;11.30;78.95
47220;BME280;32961;51.936;4.788;2023-05-25T01:07:50;102641.56;;;11.29;78.45
47220;BME280;32961;51.936;4.788;2023-05-25T01:10:21;102640.03;;;11.25;79.97
47220;BME280;32961;51.936;4.788;2023-05-25T01:12:52;102642.63;;;11.14;81.77
47220;BME280;32961;51.936;4.788;2023-05-25T01:15:20;102639.13;;;11.12;81.10
47220;BME280;32961;51.936;4.788;2023-05-25T01:17:48;102641.97;;;11.10;81.28
47220;BME280;32961;51.936;4.788;2023-05-25T01:20:19;102638.34;;;11.10;81.17
47220;BME280;32961;51.936;4.788;2023-05-25T01:22:53;102637.69;;;11.06;81.24
47220;BME280;32961;51.936;4.788;2023-05-25T01:25:26;102634.88;;;11.07;81.33
47220;BME280;32961;51.936;4.788;2023-05-25T01:28:02;102639.53;;;11.05;82.85
47220;BME280;32961;51.936;4.788;2023-05-25T01:30:31;102642.38;;;11.04;83.47
47220;BME280;32961;51.936;4.788;2023-05-25T01:32:59;102652.38;;;11.03;83.60
47220;BME280;32961;51.936;4.788;2023-05-25T01:35:28;102648.78;;;11.03;83.28
47220;BME280;32961;51.936;4.788;2023-05-25T01:37:58;102660.53;;;11.03;83.69
47220;BME280;32961;51.936;4.788;2023-05-25T01:40:26;102663.25;;;11.03;83.83
47220;BME280;32961;51.936;4.788;2023-05-25T01:42:53;102654.34;;;11.01;83.92
47220;BME280;32961;51.936;4.788;2023-05-25T01:45:22;102664.13;;;11.04;84.22
47220;BME280;32961;51.936;4.788;2023-05-25T01:47:56;102660.63;;;11.02;85.18
47220;BME280;32961;51.936;4.788;2023-05-25T01:50:30;102663.59;;;10.99;85.82
47220;BME280;32961;51.936;4.788;2023-05-25T01:53:03;102667.16;;;10.99;85.86
47220;BME280;32961;51.936;4.788;2023-05-25T01:55:36;102665.22;;;11.01;85.58
47220;BME280;32961;51.936;4.788;2023-05-25T01:58:07;102668.81;;;11.02;85.81
47220;BME280;32961;51.936;4.788;2023-05-25T02:00:36;102670.31;;;11.06;85.67
47220;BME280;32961;51.936;4.788;2023-05-25T02:03:05;102670.25;;;11.07;85.60
47220;BME280;32961;51.936;4.788;2023-05-25T02:05:35;102669.47;;;11.05;86.59
47220;BME280;32961;51.936;4.788;2023-05-25T02:08:05;102665.88;;;11.05;87.17
47220;BME280;32961;51.936;4.788;2023-05-25T02:10:33;102668.69;;;11.03;86.73
47220;BME280;32961;51.936;4.788;2023-05-25T02:13:01;102672.41;;;11.02;87.32
47220;BME280;32961;51.936;4.788;2023-05-25T02:15:30;102663.66;;;10.97;87.57
47220;BME280;32961;51.936;4.788;2023-05-25T02:17:58;102662.50;;;11.01;87.23
47220;BME280;32961;51.936;4.788;2023-05-25T02:20:27;102670.56;;;11.03;86.44
47220;BME280;32961;51.936;4.788;2023-05-25T02:22:55;102666.97;;;11.02;85.78
47220;BME280;32961;51.936;4.788;2023-05-25T02:25:24;102665.22;;;11.01;85.87
47220;BME280;32961;51.936;4.788;2023-05-25T02:27:52;102661.53;;;11.02;85.38
47220;BME280;32961;51.936;4.788;2023-05-25T02:30:20;102665.22;;;11.01;84.52
47220;BME280;32961;51.936;4.788;2023-05-25T02:32:48;102675.13;;;11.02;84.17
47220;BME280;32961;51.936;4.788;2023-05-25T02:35:16;102671.75;;;10.99;84.79
47220;BME280;32961;51.936;4.788;2023-05-25T02:37:44;102669.88;;;10.99;85.15
47220;BME280;32961;51.936;4.788;2023-05-25T02:40:16;102671.81;;;10.97;84.38
47220;BME280;32961;51.936;4.788;2023-05-25T02:42:45;102664.63;;;10.96;83.59
47220;BME280;32961;51.936;4.788;2023-05-25T02:45:13;102660.19;;;10.95;83.43
47220;BME280;32961;51.936;4.788;2023-05-25T02:47:41;102671.94;;;10.96;83.53
47220;BME280;32961;51.936;4.788;2023-05-25T02:50:09;102660.38;;;10.92;83.82
47220;BME280;32961;51.936;4.788;2023-05-25T02:52:37;102668.94;;;10.86;84.35
47220;BME280;32961;51.936;4.788;2023-05-25T02:55:06;102675.25;;;10.86;85.75
47220;BME280;32961;51.936;4.788;2023-05-25T02:57:35;102681.09;;;10.80;87.26
47220;BME280;32961;51.936;4.788;2023-05-25T03:00:06;102680.81;;;10.70;88.18
47220;BME280;32961;51.936;4.788;2023-05-25T03:02:36;102683.53;;;10.70;87.79
47220;BME280;32961;51.936;4.788;2023-05-25T03:05:05;102678.50;;;10.64;87.67
47220;BME280;32961;51.936;4.788;2023-05-25T03:07:33;102689.59;;;10.61;89.38
47220;BME280;32961;51.936;4.788;2023-05-25T03:10:01;102685.25;;;10.58;88.52
47220;BME280;32961;51.936;4.788;2023-05-25T03:12:29;102687.16;;;10.56;88.15
47220;BME280;32961;51.936;4.788;2023-05-25T03:14:56;102681.84;;;10.55;87.51
47220;BME280;32961;51.936;4.788;2023-05-25T03:17:25;102689.03;;;10.56;86.72
47220;BME280;32961;51.936;4.788;2023-05-25T03:19:53;102686.22;;;10.57;85.64
47220;BME280;32961;51.936;4.788;2023-05-25T03:22:21;102695.03;;;10.61;84.85
47220;BME280;32961;51.936;4.788;2023-05-25T03:24:49;102691.34;;;10.62;85.15
47220;BME280;32961;51.936;4.788;2023-05-25T03:27:17;102696.69;;;10.64;85.42
47220;BME280;32961;51.936;4.788;2023-05-25T03:29:47;102693.19;;;10.62;84.76
47220;BME280;32961;51.936;4.788;2023-05-25T03:32:15;102699.50;;;10.62;84.55
47220;BME280;32961;51.936;4.788;2023-05-25T03:34:44;102691.06;;;10.52;83.71
47220;BME280;32961;51.936;4.788;2023-05-25T03:37:12;102698.72;;;10.60;83.06
47220;BME280;32961;51.936;4.788;2023-05-25T03:39:40;102711.25;;;10.63;82.45
47220;BME280;32961;51.936;4.788;2023-05-25T03:42:08;102703.97;;;10.63;81.84
47220;BME280;32961;51.936;4.788;2023-05-25T03:44:36;102697.53;;;10.64;81.48
47220;BME280;32961;51.936;4.788;2023-05-25T03:47:06;102700.19;;;10.66;81.28
47220;BME280;32961;51.936;4.788;2023-05-25T03:49:34;102697.47;;;10.66;82.18
47220;BME280;32961;51.936;4.788;2023-05-25T03:52:04;102702.13;;;10.64;82.00
47220;BME280;32961;51.936;4.788;2023-05-25T03:54:32;102683.66;;;10.54;81.75
47220;BME280;32961;51.936;4.788;2023-05-25T03:57:00;102699.56;;;10.60;81.50
47220;BME280;32961;51.936;4.788;2023-05-25T03:59:29;102697.06;;;10.57;80.97
47220;BME280;32961;51.936;4.788;2023-05-25T04:01:57;102703.97;;;10.63;80.70
47220;BME280;32961;51.936;4.788;2023-05-25T04:04:25;102698.53;;;10.63;80.44
47220;BME280;32961;51.936;4.788;2023-05-25T04:06:55;102705.69;;;10.64;80.41
47220;BME280;32961;51.936;4.788;2023-05-25T04:09:24;102710.38;;;10.62;80.40
47220;BME280;32961;51.936;4.788;2023-05-25T04:11:52;102711.06;;;10.66;80.49
47220;BME280;32961;51.936;4.788;2023-05-25T04:14:20;102708.34;;;10.66;80.32
47220;BME280;32961;51.936;4.788;2023-05-25T04:16:48;102716.56;;;10.64;80.63
47220;BME280;32961;51.936;4.788;2023-05-25T04:19:16;102717.47;;;10.65;80.71
47220;BME280;32961;51.936;4.788;2023-05-25T04:21:44;102720.19;;;10.65;81.64
47220;BME280;32961;51.936;4.788;2023-05-25T04:24:12;102709.59;;;10.60;82.00
47220;BME280;32961;51.936;4.788;2023-05-25T04:26:42;102728.44;;;10.63;82.50
47220;BME280;32961;51.936;4.788;2023-05-25T04:29:11;102723.97;;;10.62;83.37
47220;BME280;32961;51.936;4.788;2023-05-25T04:31:39;102733.28;;;10.58;84.44
47220;BME280;32961;51.936;4.788;2023-05-25T04:34:08;102736.88;;;10.58;84.51
47220;BME280;32961;51.936;4.788;2023-05-25T04:36:36;102734.34;;;10.55;85.46
47220;BME280;32961;51.936;4.788;2023-05-25T04:39:08;102742.44;;;10.57;85.39
47220;BME280;32961;51.936;4.788;2023-05-25T04:41:36;102746.13;;;10.56;85.46
47220;BME280;32961;51.936;4.788;2023-05-25T04:44:06;102750.66;;;10.55;85.89
47220;BME280;32961;51.936;4.788;2023-05-25T04:46:36;102743.47;;;10.54;86.00
47220;BME280;32961;51.936;4.788;2023-05-25T04:49:04;102737.34;;;10.51;86.41
47220;BME280;32961;51.936;4.788;2023-05-25T04:51:34;102744.47;;;10.53;86.63
47220;BME280;32961;51.936;4.788;2023-05-25T04:54:02;102744.34;;;10.55;87.02
47220;BME280;32961;51.936;4.788;2023-05-25T04:56:31;102746.97;;;10.56;87.47
47220;BME280;32961;51.936;4.788;2023-05-25T04:58:59;102749.59;;;10.58;87.43
47220;BME280;32961;51.936;4.788;2023-05-25T05:01:29;102750.19;;;10.63;87.83
47220;BME280;32961;51.936;4.788;2023-05-25T05:03:59;102754.84;;;10.61;88.79
47220;BME280;32961;51.936;4.788;2023-05-25T05:06:27;102748.34;;;10.64;89.10
47220;BME280;32961;51.936;4.788;2023-05-25T05:08:55;102752.97;;;10.62;90.57
47220;BME280;32961;51.936;4.788;2023-05-25T05:11:23;102754.72;;;10.63;90.96
47220;BME280;32961;51.936;4.788;2023-05-25T05:13:51;102761.06;;;10.63;92.62
47220;BME280;32961;51.936;4.788;2023-05-25T05:16:18;102760.84;;;10.66;92.44
47220;BME280;32961;51.936;4.788;2023-05-25T05:18:48;102767.34;;;10.64;95.17
47220;BME280;32961;51.936;4.788;2023-05-25T05:21:16;102771.63;;;10.68;95.13
47220;BME280;32961;51.936;4.788;2023-05-25T05:23:45;102764.72;;;10.76;94.19
47220;BME280;32961;51.936;4.788;2023-05-25T05:26:13;102772.41;;;10.70;96.54
47220;BME280;32961;51.936;4.788;2023-05-25T05:28:41;102777.34;;;10.78;96.37
47220;BME280;32961;51.936;4.788;2023-05-25T05:31:09;102781.31;;;10.86;95.77
47220;BME280;32961;51.936;4.788;2023-05-25T05:33:37;102769.16;;;10.92;96.47
47220;BME280;32961;51.936;4.788;2023-05-25T05:36:07;102778.56;;;11.01;95.79
47220;BME280;32961;51.936;4.788;2023-05-25T05:38:35;102764.91;;;11.02;95.70
47220;BME280;32961;51.936;4.788;2023-05-25T05:41:05;102775.66;;;11.18;94.95
47220;BME280;32961;51.936;4.788;2023-05-25T05:43:39;102778.03;;;11.23;94.55
47220;BME280;32961;51.936;4.788;2023-05-25T05:46:07;102781.81;;;11.35;94.28
47220;BME280;32961;51.936;4.788;2023-05-25T05:48:36;102786.16;;;11.37;94.04
47220;BME280;32961;51.936;4.788;2023-05-25T05:51:04;102788.28;;;11.47;93.85
47220;BME280;32961;51.936;4.788;2023-05-25T05:53:34;102788.31;;;11.60;93.85
47220;BME280;32961;51.936;4.788;2023-05-25T05:56:02;102782.16;;;11.70;93.24
47220;BME280;32961;51.936;4.788;2023-05-25T05:58:29;102793.84;;;11.85;92.87
47220;BME280;32961;51.936;4.788;2023-05-25T06:00:58;102791.06;;;12.00;92.38
47220;BME280;32961;51.936;4.788;2023-05-25T06:03:26;102798.50;;;12.11;91.27
47220;BME280;32961;51.936;4.788;2023-05-25T06:05:55;102793.84;;;12.26;90.39
47220;BME280;32961;51.936;4.788;2023-05-25T06:08:23;102802.56;;;12.31;89.97
47220;BME280;32961;51.936;4.788;2023-05-25T06:10:53;102798.09;;;12.43;89.45
47220;BME280;32961;51.936;4.788;2023-05-25T06:13:21;102802.00;;;12.51;88.58
47220;BME280;32961;51.936;4.788;2023-05-25T06:15:49;102802.22;;;12.61;87.63
47220;BME280;32961;51.936;4.788;2023-05-25T06:18:17;102803.53;;;12.68;87.68
47220;BME280;32961;51.936;4.788;2023-05-25T06:20:44;102810.94;;;12.79;87.02
47220;BME280;32961;51.936;4.788;2023-05-25T06:23:12;102813.88;;;12.89;86.17
47220;BME280;32961;51.936;4.788;2023-05-25T06:25:40;102822.41;;;12.97;86.05
47220;BME280;32961;51.936;4.788;2023-05-25T06:28:10;102808.38;;;13.02;85.35
47220;BME280;32961;51.936;4.788;2023-05-25T06:30:37;102813.81;;;13.15;85.09
47220;BME280;32961;51.936;4.788;2023-05-25T06:33:05;102822.41;;;13.22;84.79
47220;BME280;32961;51.936;4.788;2023-05-25T06:35:34;102815.19;;;13.33;83.65
47220;BME280;32961;51.936;4.788;2023-05-25T06:38:01;102813.78;;;13.41;84.17
47220;BME280;32961;51.936;4.788;2023-05-25T06:40:29;102810.06;;;13.42;81.22
47220;BME280;32961;51.936;4.788;2023-05-25T06:42:57;102817.34;;;13.54;81.48
47220;BME280;32961;51.936;4.788;2023-05-25T06:45:26;102810.75;;;13.57;80.04
47220;BME280;32961;51.936;4.788;2023-05-25T06:47:54;102817.25;;;13.67;80.09
47220;BME280;32961;51.936;4.788;2023-05-25T06:50:22;102816.44;;;13.78;79.26
47220;BME280;32961;51.936;4.788;2023-05-25T06:52:50;102825.91;;;13.85;78.06
47220;BME280;32961;51.936;4.788;2023-05-25T06:55:18;102820.97;;;13.90;77.49
47220;BME280;32961;51.936;4.788;2023-05-25T06:57:46;102823.97;;;13.99;78.03
47220;BME280;32961;51.936;4.788;2023-05-25T07:00:29;102833.31;;;14.07;78.51
47220;BME280;32961;51.936;4.788;2023-05-25T07:03:04;102832.78;;;14.26;76.61
47220;BME280;32961;51.936;4.788;2023-05-25T07:05:32;102835.03;;;14.33;74.82
47220;BME280;32961;51.936;4.788;2023-05-25T07:08:00;102843.09;;;14.34;75.28
47220;BME280;32961;51.936;4.788;2023-05-25T07:10:28;102841.50;;;14.43;74.13
47220;BME280;32961;51.936;4.788;2023-05-25T07:12:56;102845.13;;;14.55;74.37
47220;BME280;32961;51.936;4.788;2023-05-25T07:15:24;102844.03;;;14.57;73.11
47220;BME280;32961;51.936;4.788;2023-05-25T07:17:53;102855.25;;;14.66;73.16
47220;BME280;32961;51.936;4.788;2023-05-25T07:20:22;102854.50;;;14.75;72.24
47220;BME280;32961;51.936;4.788;2023-05-25T07:22:50;102855.03;;;14.91;72.41
47220;BME280;32961;51.936;4.788;2023-05-25T07:25:19;102855.16;;;15.01;70.27
47220;BME280;32961;51.936;4.788;2023-05-25T07:27:47;102849.56;;;15.03;70.26
47220;BME280;32961;51.936;4.788;2023-05-25T07:30:15;102859.38;;;15.05;71.10
47220;BME280;32961;51.936;4.788;2023-05-25T07:32:43;102859.38;;;15.05;69.27
47220;BME280;32961;51.936;4.788;2023-05-25T07:35:13;102857.66;;;14.82;69.74
47220;BME280;32961;51.936;4.788;2023-05-25T07:37:41;102858.50;;;14.82;70.12
47220;BME280;32961;51.936;4.788;2023-05-25T07:40:09;102857.78;;;14.80;70.38
47220;BME280;32961;51.936;4.788;2023-05-25T07:42:37;102863.75;;;14.74;70.34
47220;BME280;32961;51.936;4.788;2023-05-25T07:45:06;102863.84;;;14.72;70.51
47220;BME280;32961;51.936;4.788;2023-05-25T07:47:34;102867.47;;;14.84;71.06
47220;BME280;32961;51.936;4.788;2023-05-25T07:50:02;102862.50;;;14.89;70.54
47220;BME280;32961;51.936;4.788;2023-05-25T07:52:36;102868.72;;;15.03;70.74
47220;BME280;32961;51.936;4.788;2023-05-25T07:55:05;102874.19;;;15.03;69.66
47220;BME280;32961;51.936;4.788;2023-05-25T07:57:33;102876.28;;;15.11;69.58
47220;BME280;32961;51.936;4.788;2023-05-25T08:00:02;102871.56;;;15.13;68.53
47220;BME280;32961;51.936;4.788;2023-05-25T08:02:31;102879.56;;;15.16;68.06
47220;BME280;32961;51.936;4.788;2023-05-25T08:04:59;102877.19;;;15.00;69.36
47220;BME280;32961;51.936;4.788;2023-05-25T08:07:31;102878.19;;;14.87;69.64
47220;BME280;32961;51.936;4.788;2023-05-25T08:10:01;102884.25;;;14.91;68.54
47220;BME280;32961;51.936;4.788;2023-05-25T08:12:32;102884.66;;;15.09;69.48
47220;BME280;32961;51.936;4.788;2023-05-25T08:15:13;102878.78;;;15.25;70.02
47220;BME280;32961;51.936;4.788;2023-05-25T08:17:42;102880.91;;;15.44;67.25
47220;BME280;32961;51.936;4.788;2023-05-25T08:20:11;102885.53;;;15.21;69.17
47220;BME280;32961;51.936;4.788;2023-05-25T08:22:39;102886.59;;;15.41;68.53
47220;BME280;32961;51.936;4.788;2023-05-25T08:25:08;102890.84;;;15.45;65.88
47220;BME280;32961;51.936;4.788;2023-05-25T08:27:36;102886.44;;;15.65;65.88
47220;BME280;32961;51.936;4.788;2023-05-25T08:30:05;102888.28;;;15.76;65.25
47220;BME280;32961;51.936;4.788;2023-05-25T08:32:33;102895.28;;;15.92;65.10
47220;BME280;32961;51.936;4.788;2023-05-25T08:35:01;102895.38;;;15.90;64.22
47220;BME280;32961;51.936;4.788;2023-05-25T08:37:30;102886.00;;;15.93;64.93
47220;BME280;32961;51.936;4.788;2023-05-25T08:39:59;102894.50;;;15.90;63.96
47220;BME280;32961;51.936;4.788;2023-05-25T08:42:29;102902.13;;;15.63;64.19
47220;BME280;32961;51.936;4.788;2023-05-25T08:44:57;102897.56;;;15.52;64.73
47220;BME280;32961;51.936;4.788;2023-05-25T08:47:29;102893.06;;;15.63;66.01
47220;BME280;32961;51.936;4.788;2023-05-25T08:49:59;102898.13;;;15.79;66.91
47220;BME280;32961;51.936;4.788;2023-05-25T08:52:31;102896.91;;;16.15;65.63
47220;BME280;32961;51.936;4.788;2023-05-25T08:55:03;102894.03;;;16.38;62.14
47220;BME280;32961;51.936;4.788;2023-05-25T08:57:41;102893.63;;;16.22;61.24
47220;BME280;32961;51.936;4.788;2023-05-25T09:00:14;102891.75;;;16.22;62.14
47220;BME280;32961;51.936;4.788;2023-05-25T09:02:47;102903.09;;;16.29;61.84
47220;BME280;32961;51.936;4.788;2023-05-25T09:05:17;102891.13;;;16.30;60.94
47220;BME280;32961;51.936;4.788;2023-05-25T09:07:46;102901.19;;;16.29;60.95
47220;BME280;32961;51.936;4.788;2023-05-25T09:10:18;102904.31;;;16.03;60.97
47220;BME280;32961;51.936;4.788;2023-05-25T09:12:48;102907.94;;;16.04;61.75
47220;BME280;32961;51.936;4.788;2023-05-25T09:15:18;102896.00;;;15.94;62.09
47220;BME280;32961;51.936;4.788;2023-05-25T09:17:46;102906.72;;;15.97;62.35
47220;BME280;32961;51.936;4.788;2023-05-25T09:20:14;102903.69;;;16.00;62.30
47220;BME280;32961;51.936;4.788;2023-05-25T09:22:43;102900.84;;;15.90;62.94
47220;BME280;32961;51.936;4.788;2023-05-25T09:25:14;102903.38;;;15.70;63.68
47220;BME280;32961;51.936;4.788;2023-05-25T09:27:44;102907.75;;;15.84;63.72
47220;BME280;32961;51.936;4.788;2023-05-25T09:30:14;102899.72;;;15.93;66.91
47220;BME280;32961;51.936;4.788;2023-05-25T09:32:42;102898.53;;;15.85;67.18
47220;BME280;32961;51.936;4.788;2023-05-25T09:35:13;102902.22;;;15.96;67.52
47220;BME280;32961;51.936;4.788;2023-05-25T09:37:42;102897.84;;;16.26;67.57
47220;BME280;32961;51.936;4.788;2023-05-25T09:40:10;102892.81;;;16.10;65.85
47220;BME280;32961;51.936;4.788;2023-05-25T09:42:41;102907.06;;;16.25;65.27
47220;BME280;32961;51.936;4.788;2023-05-25T09:45:09;102893.50;;;16.44;63.74
47220;BME280;32961;51.936;4.788;2023-05-25T09:47:39;102905.91;;;16.39;63.81
47220;BME280;32961;51.936;4.788;2023-05-25T09:50:08;102897.75;;;16.48;63.70
47220;BME280;32961;51.936;4.788;2023-05-25T09:52:36;102903.16;;;16.60;61.87
47220;BME280;32961;51.936;4.788;2023-05-25T09:55:07;102892.72;;;16.53;62.25
47220;BME280;32961;51.936;4.788;2023-05-25T09:57:36;102900.50;;;16.48;63.56
47220;BME280;32961;51.936;4.788;2023-05-25T10:00:04;102904.31;;;16.57;62.27
47220;BME280;32961;51.936;4.788;2023-05-25T10:02:34;102895.88;;;16.70;61.84
47220;BME280;32961;51.936;4.788;2023-05-25T10:05:04;102899.47;;;16.71;60.54
47220;BME280;32961;51.936;4.788;2023-05-25T10:07:33;102914.81;;;16.73;58.90
47220;BME280;32961;51.936;4.788;2023-05-25T10:10:05;102894.66;;;16.63;57.35
47220;BME280;32961;51.936;4.788;2023-05-25T10:12:33;102901.41;;;16.59;57.27
47220;BME280;32961;51.936;4.788;2023-05-25T10:15:02;102904.31;;;16.36;57.68
47220;BME280;32961;51.936;4.788;2023-05-25T10:17:34;102896.75;;;16.49;57.91
47220;BME280;32961;51.936;4.788;2023-05-25T10:20:06;102899.19;;;16.74;58.35
47220;BME280;32961;51.936;4.788;2023-05-25T10:22:39;102895.19;;;16.78;56.59
47220;BME280;32961;51.936;4.788;2023-05-25T10:25:09;102897.13;;;17.08;55.92
47220;BME280;32961;51.936;4.788;2023-05-25T10:27:42;102895.53;;;17.46;55.83
47220;BME280;32961;51.936;4.788;2023-05-25T10:30:13;102892.84;;;17.86;54.14
47220;BME280;32961;51.936;4.788;2023-05-25T10:32:43;102885.06;;;18.10;52.41
47220;BME280;32961;51.936;4.788;2023-05-25T10:35:15;102892.31;;;18.31;53.39
47220;BME280;32961;51.936;4.788;2023-05-25T10:37:44;102890.44;;;18.02;52.69
47220;BME280;32961;51.936;4.788;2023-05-25T10:40:12;102891.00;;;18.06;54.17
47220;BME280;32961;51.936;4.788;2023-05-25T10:42:41;102900.00;;;18.27;54.13
47220;BME280;32961;51.936;4.788;2023-05-25T10:45:09;102901.16;;;18.35;52.47
47220;BME280;32961;51.936;4.788;2023-05-25T10:47:39;102897.97;;;18.30;52.60
47220;BME280;32961;51.936;4.788;2023-05-25T10:50:20;102895.22;;;18.20;52.39
47220;BME280;32961;51.936;4.788;2023-05-25T10:52:58;102899.59;;;17.62;53.04
47220;BME280;32961;51.936;4.788;2023-05-25T10:55:27;102901.25;;;17.74;54.09
47220;BME280;32961;51.936;4.788;2023-05-25T10:58:07;102890.44;;;18.02;52.79
47220;BME280;32961;51.936;4.788;2023-05-25T11:00:36;102902.69;;;17.88;52.62
47220;BME280;32961;51.936;4.788;2023-05-25T11:03:05;102895.44;;;17.87;53.83
47220;BME280;32961;51.936;4.788;2023-05-25T11:05:38;102888.41;;;17.94;54.27
47220;BME280;32961;51.936;4.788;2023-05-25T11:08:07;102897.66;;;18.23;52.69
47220;BME280;32961;51.936;4.788;2023-05-25T11:10:56;102908.09;;;18.19;51.91
47220;BME280;32961;51.936;4.788;2023-05-25T11:13:35;102903.47;;;18.30;51.94
47220;BME280;32961;51.936;4.788;2023-05-25T11:16:17;102893.06;;;18.14;54.21
47220;BME280;32961;51.936;4.788;2023-05-25T11:18:50;102886.66;;;18.23;53.98
47220;BME280;32961;51.936;4.788;2023-05-25T11:21:40;102893.59;;;18.27;55.31
47220;BME280;32961;51.936;4.788;2023-05-25T11:24:14;102891.31;;;18.42;54.94
47220;BME280;32961;51.936;4.788;2023-05-25T11:26:55;102905.34;;;18.29;55.02
47220;BME280;32961;51.936;4.788;2023-05-25T11:29:23;102897.66;;;18.03;56.54
47220;BME280;32961;51.936;4.788;2023-05-25T11:31:53;102887.50;;;17.94;57.54
47220;BME280;32961;51.936;4.788;2023-05-25T11:34:22;102890.72;;;17.99;57.38
47220;BME280;32961;51.936;4.788;2023-05-25T11:36:56;102892.53;;;17.79;57.17
47220;BME280;32961;51.936;4.788;2023-05-25T11:39:27;102892.13;;;17.84;55.57
47220;BME280;32961;51.936;4.788;2023-05-25T11:42:00;102884.28;;;17.69;55.94
47220;BME280;32961;51.936;4.788;2023-05-25T11:44:30;102886.47;;;17.25;57.68
47220;BME280;32961;51.936;4.788;2023-05-25T11:47:01;102884.78;;;17.43;57.77
47220;BME280;32961;51.936;4.788;2023-05-25T11:49:33;102879.22;;;17.55;56.62
47220;BME280;32961;51.936;4.788;2023-05-25T11:52:05;102876.50;;;17.74;56.58
47220;BME280;32961;51.936;4.788;2023-05-25T11:54:33;102872.84;;;17.74;56.86
47220;BME280;32961;51.936;4.788;2023-05-25T11:57:02;102875.59;;;17.74;56.29
47220;BME280;32961;51.936;4.788;2023-05-25T11:59:30;102873.75;;;17.94;57.01
47220;BME280;32961;51.936;4.788;2023-05-25T12:02:00;102869.97;;;17.85;58.31
47220;BME280;32961;51.936;4.788;2023-05-25T12:04:29;102871.56;;;17.78;57.98
47220;BME280;32961;51.936;4.788;2023-05-25T12:07:01;102874.75;;;17.73;58.57
47220;BME280;32961;51.936;4.788;2023-05-25T12:09:34;102877.63;;;17.91;58.15
47220;BME280;32961;51.936;4.788;2023-05-25T12:12:03;102872.13;;;17.81;57.56
47220;BME280;32961;51.936;4.788;2023-05-25T12:14:31;102868.38;;;17.92;57.19
47220;BME280;32961;51.936;4.788;2023-05-25T12:17:01;102868.69;;;17.89;55.67
47220;BME280;32961;51.936;4.788;2023-05-25T12:19:29;102869.84;;;17.77;54.88
47220;BME280;32961;51.936;4.788;2023-05-25T12:21:58;102881.97;;;17.64;54.91
47220;BME280;32961;51.936;4.788;2023-05-25T12:24:26;102886.66;;;17.33;55.69
47220;BME280;32961;51.936;4.788;2023-05-25T12:26:55;102880.88;;;17.36;55.86
47220;BME280;32961;51.936;4.788;2023-05-25T12:29:24;102872.34;;;17.39;55.73
47220;BME280;32961;51.936;4.788;2023-05-25T12:31:52;102878.72;;;17.49;56.10
47220;BME280;32961;51.936;4.788;2023-05-25T12:34:28;102877.13;;;17.47;55.71
47220;BME280;32961;51.936;4.788;2023-05-25T12:36:55;102871.53;;;17.48;54.39
47220;BME280;32961;51.936;4.788;2023-05-25T12:39:33;102874.38;;;17.37;54.03
47220;BME280;32961;51.936;4.788;2023-05-25T12:42:11;102864.78;;;17.22;54.52
47220;BME280;32961;51.936;4.788;2023-05-25T12:44:41;102873.56;;;17.06;55.36
47220;BME280;32961;51.936;4.788;2023-05-25T12:47:11;102873.88;;;17.22;53.77
47220;BME280;32961;51.936;4.788;2023-05-25T12:49:40;102872.19;;;17.31;53.73
47220;BME280;32961;51.936;4.788;2023-05-25T12:52:09;102877.59;;;17.62;52.50
47220;BME280;32961;51.936;4.788;2023-05-25T12:54:40;102879.34;;;17.63;52.06
47220;BME280;32961;51.936;4.788;2023-05-25T12:57:12;102878.38;;;17.84;52.15
47220;BME280;32961;51.936;4.788;2023-05-25T12:59:41;102868.97;;;17.86;52.81
47220;BME280;32961;51.936;4.788;2023-05-25T13:02:11;102866.69;;;18.01;52.10
47220;BME280;32961;51.936;4.788;2023-05-25T13:04:42;102858.59;;;18.09;52.97
47220;BME280;32961;51.936;4.788;2023-05-25T13:07:10;102865.81;;;18.20;52.32